createdAt,value
2023-11-29T00:04:25.015Z,99142.40
2023-11-29T00:09:24.736Z,99144.60
2023-11-29T00:14:23.705Z,99146.60
2023-11-29T00:19:23.379Z,99149.20
2023-11-29T00:24:22.719Z,99159.80
2023-11-29T00:29:26.070Z,99157.40
2023-11-29T00:34:26.040Z,99166.80
2023-11-29T00:39:25.317Z,99169.80
2023-11-29T00:44:24.765Z,99170.80
2023-11-29T00:49:24.838Z,99168.40
2023-11-29T00:54:24.627Z,99170.60
2023-11-29T00:59:24.732Z,99173.40
2023-11-29T01:04:24.146Z,99180.60
2023-11-29T01:09:23.031Z,99184.60
2023-11-29T01:14:22.523Z,99190.00
2023-11-29T01:19:24.721Z,99191.80
2023-11-29T01:24:24.717Z,99195.60
2023-11-29T01:29:25.550Z,99202.40
2023-11-29T01:34:24.736Z,99207.60
2023-11-29T01:39:24.838Z,99210.80
2023-11-29T01:44:24.551Z,99216.60
2023-11-29T01:49:24.662Z,99219.20
2023-11-29T01:54:24.037Z,99215.80
2023-11-29T01:59:22.948Z,99218.00
2023-11-29T02:04:22.064Z,99224.60
2023-11-29T02:09:21.721Z,99220.40
2023-11-29T02:14:21.117Z,99225.20
2023-11-29T02:19:20.558Z,99225.80
2023-11-29T02:24:25.854Z,99226.00
2023-11-29T02:29:25.257Z,99226.60
2023-11-29T02:34:29.749Z,99224.20
2023-11-29T02:39:29.476Z,99220.40
2023-11-29T02:44:29.106Z,99221.00
2023-11-29T02:49:28.845Z,99222.80
2023-11-29T02:54:28.088Z,99227.20
2023-11-29T02:59:27.073Z,99233.60
2023-11-29T03:04:26.506Z,99241.80
2023-11-29T03:09:26.024Z,99243.20
2023-11-29T03:14:27.213Z,99239.00
2023-11-29T03:19:26.516Z,99239.40
2023-11-29T03:24:26.333Z,99243.60
2023-11-29T03:29:26.695Z,99243.00
2023-11-29T03:34:26.139Z,99251.20
2023-11-29T03:39:25.398Z,99251.60
2023-11-29T03:44:26.911Z,99247.00
2023-11-29T03:49:26.516Z,99255.80
2023-11-29T03:54:27.244Z,99263.40
2023-11-29T03:59:26.393Z,99258.20
2023-11-29T04:04:26.932Z,99255.60
2023-11-29T04:09:26.165Z,99239.20
2023-11-29T04:14:26.337Z,99242.20
2023-11-29T04:19:26.667Z,99237.40
2023-11-29T04:24:27.688Z,99249.40
2023-11-29T04:29:27.298Z,99253.60
2023-11-29T04:34:33.490Z,99254.20
2023-11-29T04:39:37.263Z,99256.60
2023-11-29T04:44:37.598Z,99247.80
2023-11-29T04:49:37.386Z,99255.20
2023-11-29T04:54:37.365Z,99254.60
2023-11-29T04:59:38.742Z,99258.60
2023-11-29T05:04:38.942Z,99259.80
2023-11-29T05:09:38.407Z,99251.00
2023-11-29T05:14:38.599Z,99258.80
2023-11-29T05:19:37.624Z,99267.60
2023-11-29T05:24:36.765Z,99261.80
2023-11-29T05:29:37.740Z,99267.60
2023-11-29T05:34:37.893Z,99277.40
2023-11-29T05:39:37.369Z,99278.00
2023-11-29T05:44:37.360Z,99285.40
2023-11-29T05:49:36.914Z,99283.60
2023-11-29T05:54:36.666Z,99293.80
2023-11-29T05:59:37.466Z,99302.00
2023-11-29T06:04:36.895Z,99306.80
2023-11-29T06:09:38.087Z,99311.20
2023-11-29T06:14:38.661Z,99317.00
2023-11-29T06:19:40.223Z,99333.20
2023-11-29T06:24:42.077Z,99328.60
2023-11-29T06:29:41.669Z,99332.40
2023-11-29T06:34:41.553Z,99329.80
2023-11-29T06:39:40.438Z,99335.20
2023-11-29T06:44:39.680Z,99339.20
2023-11-29T06:49:40.002Z,99327.00
2023-11-29T06:54:39.576Z,99333.00
2023-11-29T06:59:39.632Z,99331.80
2023-11-29T07:04:40.654Z,99342.80
2023-11-29T07:09:40.326Z,99358.60
2023-11-29T07:14:40.037Z,99357.80
2023-11-29T07:19:40.094Z,99368.40
2023-11-29T07:24:39.634Z,99378.20
2023-11-29T07:29:38.957Z,99385.20
2023-11-29T07:34:39.236Z,99394.80
2023-11-29T07:39:38.499Z,99401.40
2023-11-29T07:44:39.938Z,99406.80
2023-11-29T07:49:39.635Z,99408.60
2023-11-29T07:54:39.038Z,99407.20
2023-11-29T07:59:38.420Z,99406.20
2023-11-29T08:04:38.135Z,99405.20
2023-11-29T08:09:37.343Z,99407.80
2023-11-29T08:14:37.752Z,99410.80
2023-11-29T08:19:36.712Z,99421.00
2023-11-29T08:24:38.209Z,99423.60
2023-11-29T08:29:39.349Z,99430.00
2023-11-29T08:34:41.723Z,99436.60
2023-11-29T08:39:41.228Z,99442.20
2023-11-29T08:44:40.345Z,99437.60
2023-11-29T08:49:39.716Z,99427.60
2023-11-29T08:54:39.019Z,99442.00
2023-11-29T08:59:38.444Z,99433.60
2023-11-29T09:04:38.235Z,99422.20
2023-11-29T09:09:38.121Z,99435.80
2023-11-29T09:14:37.619Z,99437.20
2023-11-29T09:19:37.018Z,99441.00
2023-11-29T09:24:37.070Z,99431.60
2023-11-29T09:29:37.632Z,99427.60
2023-11-29T09:34:38.190Z,99415.40
2023-11-29T09:39:38.458Z,99413.60
2023-11-29T09:44:42.170Z,99416.40
2023-11-29T09:49:42.027Z,99417.20
2023-11-29T09:54:42.041Z,99424.40
2023-11-29T09:59:41.492Z,99427.00
2023-11-29T10:04:43.852Z,99434.60
2023-11-29T10:09:44.533Z,99434.00
2023-11-29T10:14:51.586Z,99433.00
2023-11-29T10:20:01.023Z,99435.80
2023-11-29T10:25:21.168Z,99435.80
2023-11-29T10:30:23.178Z,99440.80
2023-11-29T10:35:27.152Z,99435.40
2023-11-29T10:40:29.288Z,99432.80
2023-11-29T10:45:30.889Z,99433.00
2023-11-29T10:50:33.855Z,99435.20
2023-11-29T10:55:40.047Z,99436.80
2023-11-29T11:00:45.893Z,99442.40
2023-11-29T11:05:45.633Z,99447.20
2023-11-29T11:10:46.803Z,99451.20
2023-11-29T11:15:50.110Z,99439.40
2023-11-29T11:21:04.938Z,99433.60
2023-11-29T11:26:17.144Z,99430.80
2023-11-29T11:31:23.406Z,99430.60
2023-11-29T11:36:30.970Z,99435.80
2023-11-29T11:41:39.550Z,99431.60
2023-11-29T11:46:42.722Z,99437.60
2023-11-29T11:51:42.988Z,99439.20
2023-11-29T11:56:46.177Z,99438.20
2023-11-29T12:01:47.048Z,99434.60
2023-11-29T12:06:46.837Z,99439.60
2023-11-29T12:11:48.556Z,99438.00
2023-11-29T12:16:59.378Z,99429.00
2023-11-29T12:22:03.126Z,99428.20
2023-11-29T12:27:12.560Z,99427.20
2023-11-29T12:32:13.894Z,99425.80
2023-11-29T12:37:15.952Z,99425.00
2023-11-29T12:42:17.064Z,99430.80
2023-11-29T12:47:22.207Z,99425.80
2023-11-29T12:52:21.316Z,99427.80
2023-11-29T12:57:23.041Z,99425.80
2023-11-29T13:02:23.347Z,99434.80
2023-11-29T13:07:24.698Z,99433.40
2023-11-29T13:12:29.248Z,99435.60
2023-11-29T13:17:29.179Z,99437.80
2023-11-29T13:22:30.248Z,99438.00
2023-11-29T13:27:30.450Z,99444.20
2023-11-29T13:32:29.754Z,99442.60
2023-11-29T13:37:29.123Z,99451.80
2023-11-29T13:42:28.715Z,99459.20
2023-11-29T13:47:28.743Z,99457.60
2023-11-29T13:52:28.624Z,99454.40
2023-11-29T13:57:28.984Z,99458.40
2023-11-29T14:02:29.696Z,99458.40
2023-11-29T14:07:31.309Z,99463.40
2023-11-29T14:12:32.555Z,99463.20
2023-11-29T14:17:32.109Z,99473.80
2023-11-29T14:22:31.304Z,99469.60
2023-11-29T14:27:44.277Z,99480.40
2023-11-29T14:32:47.941Z,99485.80
2023-11-29T14:37:48.596Z,99480.40
2023-11-29T14:42:48.579Z,99484.00
2023-11-29T14:47:48.815Z,99495.40
2023-11-29T14:52:49.077Z,99491.60
2023-11-29T14:57:49.228Z,99504.20
2023-11-29T15:02:48.500Z,99511.60
2023-11-29T15:07:47.882Z,99503.40
2023-11-29T15:12:48.142Z,99502.00
2023-11-29T15:17:48.687Z,99499.40
2023-11-29T15:22:48.558Z,99503.80
2023-11-29T15:27:48.717Z,99502.80
2023-11-29T15:32:50.849Z,99499.80
2023-11-29T15:37:53.561Z,99500.00
2023-11-29T15:42:53.317Z,99497.20
2023-11-29T15:47:54.338Z,99504.20
2023-11-29T15:52:55.783Z,99512.20
2023-11-29T15:57:55.831Z,99509.60
2023-11-29T16:02:56.157Z,99507.20
2023-11-29T16:07:56.314Z,99508.80
2023-11-29T16:12:55.223Z,99504.80
2023-11-29T16:17:55.068Z,99503.60
2023-11-29T16:22:54.328Z,99500.80
2023-11-29T16:27:53.755Z,99499.20
2023-11-29T16:32:55.174Z,99513.20
2023-11-29T16:37:54.659Z,99509.40
2023-11-29T16:42:54.489Z,99508.80
2023-11-29T16:47:55.436Z,99511.80
2023-11-29T16:52:55.359Z,99510.00
2023-11-29T16:57:55.800Z,99517.80
2023-11-29T17:02:55.942Z,99518.80
2023-11-29T17:07:55.786Z,99524.60
2023-11-29T17:12:55.437Z,99522.80
2023-11-29T17:17:54.500Z,99527.80
2023-11-29T17:22:55.173Z,99526.40
2023-11-29T17:27:56.311Z,99526.40
2023-11-29T17:32:58.146Z,99527.60
2023-11-29T17:37:57.717Z,99528.60
2023-11-29T17:42:56.700Z,99520.60
2023-11-29T17:47:56.567Z,99520.40
2023-11-29T17:52:56.107Z,99524.40
2023-11-29T17:57:55.683Z,99526.80
2023-11-29T18:02:55.688Z,99527.60
2023-11-29T18:07:55.557Z,99529.80
2023-11-29T18:12:55.075Z,99529.60
2023-11-29T18:17:55.049Z,99527.60
2023-11-29T18:22:54.248Z,99525.20
2023-11-29T18:27:53.991Z,99526.80
2023-11-29T18:32:53.833Z,99533.80
2023-11-29T18:37:53.352Z,99533.00
2023-11-29T18:42:53.005Z,99528.40
2023-11-29T18:47:54.958Z,99531.20
2023-11-29T18:52:55.789Z,99536.20
2023-11-29T18:57:56.852Z,99532.00
2023-11-29T19:02:57.279Z,99537.80
2023-11-29T19:07:56.843Z,99525.00
2023-11-29T19:12:56.462Z,99523.60
2023-11-29T19:17:57.911Z,99521.00
2023-11-29T19:22:57.080Z,99519.80
2023-11-29T19:27:57.245Z,99522.60
2023-11-29T19:32:58.969Z,99518.60
2023-11-29T19:37:59.417Z,99520.20
2023-11-29T19:43:02.109Z,99516.60
2023-11-29T19:48:04.043Z,99512.40
2023-11-29T19:53:03.836Z,99508.80
2023-11-29T19:58:04.132Z,99510.40
2023-11-29T20:03:03.370Z,99517.60
2023-11-29T20:08:04.165Z,99513.80
2023-11-29T20:13:05.985Z,99520.00
2023-11-29T20:18:07.945Z,99510.80
2023-11-29T20:23:07.423Z,99510.20
2023-11-29T20:28:10.351Z,99500.40
2023-11-29T20:33:26.194Z,99495.00
2023-11-29T20:38:26.081Z,99499.40
2023-11-29T20:43:29.932Z,99493.60
2023-11-29T20:49:09.473Z,99487.20
2023-11-29T20:54:19.900Z,99486.80
2023-11-29T20:59:21.044Z,99485.80
2023-11-29T21:04:21.268Z,99486.60
2023-11-29T21:09:23.637Z,99498.00
2023-11-29T21:14:26.622Z,99494.80
2023-11-29T21:19:29.712Z,99488.40
2023-11-29T21:24:33.447Z,99481.00
2023-11-29T21:29:37.548Z,99471.40
2023-11-29T21:34:43.856Z,99468.60
2023-11-29T21:39:44.418Z,99471.00
2023-11-29T21:44:46.348Z,99466.60
2023-11-29T21:49:46.996Z,99465.00
2023-11-29T21:54:50.394Z,99461.40
2023-11-29T21:59:55.224Z,99449.60
2023-11-29T22:05:06.022Z,99449.20
2023-11-29T22:10:06.858Z,99447.40
2023-11-29T22:15:14.489Z,99442.00
2023-11-29T22:20:18.589Z,99450.20
2023-11-29T22:25:18.440Z,99442.20
2023-11-29T22:30:36.258Z,99435.60
2023-11-29T22:35:50.059Z,99424.60
2023-11-29T22:40:56.271Z,99410.20
2023-11-29T22:45:57.825Z,99409.40
2023-11-29T22:50:58.284Z,99407.20
2023-11-29T22:55:59.473Z,99401.60
2023-11-29T23:00:58.525Z,99401.80
2023-11-29T23:05:58.189Z,99400.00
2023-11-29T23:10:57.925Z,99397.40
2023-11-29T23:15:58.650Z,99395.60
2023-11-29T23:20:58.453Z,99388.60
2023-11-29T23:25:57.886Z,99394.00
2023-11-29T23:30:57.188Z,99388.40
2023-11-29T23:35:57.313Z,99394.00
2023-11-29T23:40:57.015Z,99385.60
2023-11-29T23:45:56.538Z,99384.40
2023-11-29T23:50:55.345Z,99381.00
2023-11-29T23:55:54.698Z,99379.20
